createdAt,value
2018-09-21T00:03:33.671Z,19.1
2018-09-21T00:08:36.303Z,19.1
2018-09-21T00:13:38.554Z,19
2018-09-21T00:18:41.006Z,19
2018-09-21T00:23:43.664Z,19
2018-09-21T00:28:45.917Z,18.9
2018-09-21T00:33:48.303Z,18.7
2018-09-21T00:38:50.729Z,18.5
2018-09-21T00:43:53.154Z,18.3
2018-09-21T00:48:55.633Z,18.2
2018-09-21T00:53:58.126Z,18.1
2018-09-21T00:59:00.518Z,18
2018-09-21T01:04:02.931Z,17.9
2018-09-21T01:09:06.426Z,17.8
2018-09-21T01:34:17.891Z,17.3
2018-09-21T01:39:20.016Z,17.3
2018-09-21T01:44:22.464Z,17.3
2018-09-21T01:49:24.906Z,17.2
2018-09-21T01:54:27.398Z,17.1
2018-09-21T01:59:29.948Z,17.1
2018-09-21T02:04:32.229Z,17
2018-09-21T02:09:34.704Z,17
2018-09-21T02:14:37.204Z,16.9
2018-09-21T02:19:39.583Z,16.9
2018-09-21T02:24:42.009Z,16.9
2018-09-21T02:29:44.457Z,17
2018-09-21T02:34:46.948Z,17
2018-09-21T02:39:49.304Z,17
2018-09-21T02:44:51.749Z,17
2018-09-21T02:49:54.192Z,16.9
2018-09-21T02:54:56.621Z,16.8
2018-09-21T02:59:59.157Z,16.7
2018-09-21T03:05:01.594Z,16.6
2018-09-21T03:10:03.978Z,16.6
2018-09-21T03:15:06.515Z,16.6
2018-09-21T03:20:08.854Z,16.6
2018-09-21T03:30:13.841Z,16.6
2018-09-21T03:35:16.155Z,16.6
2018-09-21T03:40:18.647Z,16.6
2018-09-21T03:45:21.108Z,16.7
2018-09-21T03:50:23.491Z,16.7
2018-09-21T03:55:25.994Z,16.8
2018-09-21T04:00:28.497Z,16.8
2018-09-21T04:05:30.814Z,16.8
2018-09-21T04:10:33.436Z,16.7
2018-09-21T04:15:35.765Z,16.9
2018-09-21T04:20:38.209Z,17
2018-09-21T04:25:45.647Z,17.1
2018-09-21T04:30:43.022Z,17.2
2018-09-21T04:35:45.534Z,17.1
2018-09-21T04:40:47.915Z,17.1
2018-09-21T04:45:50.491Z,17
2018-09-21T04:50:52.857Z,16.9
2018-09-21T04:55:55.382Z,16.9
2018-09-21T05:00:57.703Z,16.8
2018-09-21T05:06:00.272Z,16.7
2018-09-21T05:11:02.617Z,16.8
2018-09-21T05:16:05.162Z,16.8
2018-09-21T05:21:07.410Z,16.9
2018-09-21T05:26:10.177Z,17
2018-09-21T05:31:12.289Z,17
2018-09-21T05:36:14.740Z,17
2018-09-21T05:41:17.176Z,17
2018-09-21T05:46:19.651Z,17.1
2018-09-21T05:51:22.132Z,17.3
2018-09-21T05:56:24.519Z,17.6
2018-09-21T06:01:26.948Z,17.9
2018-09-21T06:06:29.421Z,18.1
2018-09-21T06:11:31.834Z,18.4
2018-09-21T06:16:34.261Z,18.5
2018-09-21T06:21:36.732Z,18.6
2018-09-21T06:26:39.135Z,18.7
2018-09-21T06:31:41.638Z,18.7
2018-09-21T06:36:44.029Z,18.7
2018-09-21T06:41:46.513Z,18.7
2018-09-21T06:46:49.192Z,18.7
2018-09-21T06:51:51.358Z,18.8
2018-09-21T06:56:54.073Z,18.9
2018-09-21T07:01:56.277Z,19
2018-09-21T07:06:58.686Z,19.1
2018-09-21T07:12:01.103Z,19.3
2018-09-21T07:17:03.548Z,19.4
2018-09-21T07:22:06.051Z,19.6
2018-09-21T07:27:08.436Z,19.8
2018-09-21T07:32:10.896Z,19.8
2018-09-21T07:37:13.613Z,19.9
2018-09-21T07:42:15.748Z,20
2018-09-21T07:47:18.302Z,20.1
2018-09-21T07:52:20.659Z,20.3
2018-09-21T07:57:23.204Z,20.4
2018-09-21T08:02:25.521Z,20.6
2018-09-21T08:07:28.372Z,20.7
2018-09-21T08:12:30.401Z,20.7
2018-09-21T08:17:32.834Z,20.8
2018-09-21T08:22:35.287Z,20.9
2018-09-21T08:27:37.787Z,21.1
2018-09-21T08:32:40.214Z,21.2
2018-09-21T08:37:42.618Z,21.2
2018-09-21T08:42:45.472Z,21.3
2018-09-21T08:47:47.486Z,21.4
2018-09-21T08:52:49.936Z,21.4
2018-09-21T08:57:52.503Z,21.5
2018-09-21T09:02:54.858Z,21.6
2018-09-21T09:07:57.298Z,21.7
2018-09-21T09:12:59.769Z,22
2018-09-21T09:18:02.134Z,22.1
2018-09-21T09:23:04.617Z,22.2
2018-09-21T09:28:07.223Z,22.4
2018-09-21T09:33:09.481Z,22.5
2018-09-21T09:38:11.919Z,22.7
2018-09-21T09:43:14.451Z,22.9
2018-09-21T09:48:16.913Z,23.1
2018-09-21T09:53:19.340Z,23.3
2018-09-21T09:58:21.778Z,23.6
2018-09-21T10:03:24.159Z,23.8
2018-09-21T10:08:26.557Z,24.1
2018-09-21T10:13:28.985Z,24.4
2018-09-21T10:18:31.434Z,24.8
2018-09-21T10:23:33.897Z,25.1
2018-09-21T10:28:36.596Z,25.4
2018-09-21T10:33:38.889Z,25.6
2018-09-21T10:38:41.362Z,25.6
2018-09-21T10:43:43.861Z,25.5
2018-09-21T10:48:46.094Z,25.4
2018-09-21T10:53:48.639Z,25.6
2018-09-21T10:58:51.029Z,25.7
2018-09-21T11:03:53.408Z,25.5
2018-09-21T11:08:55.980Z,25.4
2018-09-21T11:13:58.456Z,25.8
2018-09-21T11:19:00.786Z,26.5
2018-09-21T11:24:03.231Z,26.9
2018-09-21T11:29:05.653Z,26.9
2018-09-21T11:34:08.086Z,27.2
2018-09-21T11:39:10.548Z,27.1
2018-09-21T11:44:12.997Z,26.8
2018-09-21T11:49:15.485Z,27
2018-09-21T11:54:17.964Z,27.5
2018-09-21T11:59:20.373Z,27.9
2018-09-21T12:04:22.737Z,28.5
2018-09-21T12:09:25.189Z,28
2018-09-21T12:14:27.757Z,28.1
2018-09-21T12:19:30.321Z,27.7
2018-09-21T12:24:32.585Z,27
2018-09-21T12:29:34.996Z,26.5
2018-09-21T12:34:37.417Z,26.2
2018-09-21T12:39:39.848Z,26
2018-09-21T12:44:42.339Z,26
2018-09-21T12:49:44.759Z,26.5
2018-09-21T12:54:47.138Z,27.2
2018-09-21T12:59:49.592Z,27.4
2018-09-21T13:04:52.390Z,26.9
2018-09-21T13:09:54.455Z,26.8
2018-09-21T13:14:56.941Z,26.5
2018-09-21T13:19:59.397Z,26.3
2018-09-21T13:25:01.903Z,26
2018-09-21T13:30:04.396Z,25.7
2018-09-21T13:35:06.765Z,25.5
2018-09-21T13:40:09.196Z,25.4
2018-09-21T13:45:11.695Z,25.4
2018-09-21T13:50:14.032Z,25.3
2018-09-21T13:55:16.491Z,25.3
2018-09-21T14:00:19.061Z,25.2
2018-09-21T14:05:21.597Z,25.1
2018-09-21T14:10:23.774Z,25
2018-09-21T14:15:26.334Z,25
2018-09-21T14:20:28.674Z,25.1
2018-09-21T14:25:31.262Z,25.1
2018-09-21T14:30:33.550Z,25
2018-09-21T14:35:36.054Z,24.8
2018-09-21T14:40:38.510Z,24.5
2018-09-21T14:45:40.894Z,24.3
2018-09-21T14:50:43.334Z,24
2018-09-21T14:55:45.766Z,23.4
2018-09-21T15:00:48.216Z,22.8
2018-09-21T15:05:50.637Z,22.4
2018-09-21T15:10:53.145Z,21.9
2018-09-21T15:15:55.531Z,21.4
2018-09-21T15:20:58.054Z,21.2
2018-09-21T15:26:00.427Z,21
2018-09-21T15:31:02.877Z,20.8
2018-09-21T15:36:05.349Z,20.7
2018-09-21T15:41:07.731Z,20.6
2018-09-21T15:46:10.443Z,20.6
2018-09-21T15:51:12.922Z,20.6
2018-09-21T15:56:15.107Z,20.6
2018-09-21T16:01:17.525Z,20.5
2018-09-21T16:06:19.923Z,20.6
2018-09-21T16:11:22.510Z,20.6
2018-09-21T16:16:24.836Z,20.6
2018-09-21T16:21:27.284Z,20.5
2018-09-21T16:26:29.705Z,20.5
2018-09-21T16:31:32.132Z,20.5
2018-09-21T16:36:34.610Z,20.4
2018-09-21T16:41:37.057Z,20.2
2018-09-21T16:46:39.492Z,19.9
2018-09-21T16:51:41.960Z,19.8
2018-09-21T17:07:05.363Z,18.6
2018-09-21T17:11:51.989Z,17.9
2018-09-21T17:16:54.120Z,17.3
2018-09-21T17:21:56.854Z,16.9
2018-09-21T17:26:59.147Z,16.7
2018-09-21T17:32:01.496Z,16.5
2018-09-21T17:37:03.983Z,16.3
2018-09-21T17:42:06.303Z,16.2
2018-09-21T17:47:08.866Z,16
2018-09-21T17:52:11.184Z,15.8
2018-09-21T17:57:13.621Z,15.7
2018-09-21T18:02:16.403Z,15.6
2018-09-21T18:07:18.518Z,15.6
2018-09-21T18:12:21.257Z,15.5
2018-09-21T18:17:23.397Z,15.5
2018-09-21T18:22:25.922Z,15.2
2018-09-21T18:27:28.277Z,15
2018-09-21T18:32:30.776Z,14.9
2018-09-21T18:37:33.234Z,14.9
2018-09-21T18:42:35.634Z,14.9
2018-09-21T18:47:38.021Z,15
2018-09-21T18:52:40.572Z,15.1
2018-09-21T18:57:42.973Z,15.1
2018-09-21T19:02:45.356Z,15.2
2018-09-21T19:07:47.833Z,15.2
2018-09-21T19:12:50.241Z,15.1
2018-09-21T19:17:52.675Z,15
2018-09-21T19:22:55.187Z,14.9
2018-09-21T19:27:57.683Z,14.9
2018-09-21T19:33:00.130Z,14.9
2018-09-21T19:38:02.460Z,14.9
2018-09-21T19:43:05.008Z,14.9
2018-09-21T19:48:07.326Z,14.8
2018-09-21T19:53:09.856Z,14.8
2018-09-21T19:58:12.231Z,14.8
2018-09-21T20:03:14.983Z,14.8
2018-09-21T20:08:17.084Z,14.7
2018-09-21T20:13:19.631Z,14.5
2018-09-21T20:18:21.954Z,14.4
2018-09-21T20:23:24.407Z,14.3
2018-09-21T20:28:26.974Z,14.2
2018-09-21T20:33:29.289Z,14
2018-09-21T20:38:31.752Z,13.9
2018-09-21T20:43:34.275Z,13.9
2018-09-21T20:48:36.596Z,13.9
2018-09-21T20:53:39.040Z,13.8
2018-09-21T20:58:41.751Z,13.8
2018-09-21T21:03:44.106Z,13.7
2018-09-21T21:08:46.345Z,13.6
2018-09-21T21:13:49.344Z,13.6
2018-09-21T21:18:51.255Z,13.5
2018-09-21T21:23:53.675Z,13.4
2018-09-21T21:28:56.117Z,13.4
2018-09-21T21:33:58.734Z,13.4
2018-09-21T21:39:01.063Z,13.4
2018-09-21T21:44:03.464Z,13.4
2018-09-21T21:49:05.883Z,13.4
2018-09-21T21:54:08.325Z,13.3
2018-09-21T21:59:10.769Z,13.2
2018-09-21T22:04:13.222Z,13.1
2018-09-21T22:09:15.678Z,13.1
2018-09-21T22:14:18.116Z,13
2018-09-21T22:19:20.531Z,13
2018-09-21T22:24:22.975Z,12.9
2018-09-21T22:29:25.428Z,12.9
2018-09-21T22:34:27.836Z,12.8
2018-09-21T22:39:30.302Z,12.8
2018-09-21T22:44:32.723Z,12.8
2018-09-21T22:49:35.184Z,12.7
2018-09-21T22:54:37.596Z,12.7
2018-09-21T22:59:40.086Z,12.6
2018-09-21T23:04:42.570Z,12.6
2018-09-21T23:09:44.950Z,12.6
2018-09-21T23:14:47.372Z,12.5
2018-09-21T23:19:49.868Z,12.5
2018-09-21T23:24:52.259Z,12.5
2018-09-21T23:29:54.721Z,12.4
2018-09-21T23:34:57.137Z,12.4
2018-09-21T23:39:59.715Z,12.4
2018-09-21T23:45:02.085Z,12.3
2018-09-21T23:50:04.443Z,12.3
2018-09-21T23:55:06.901Z,12.2
